METAR Data
IDs: Format: Raw Decoded Include TAF

Data at: 2200 UTC 18 Sep 2018

KJSO 182155Z AUTO 00000KT 10SM SCT070 33/20 A2994 RMK AO2 T03390201
KJSO 182135Z AUTO 00000KT 10SM SCT055 SCT070 33/20 A2994 RMK AO2 T03410205
KJSO 182115Z AUTO 00000KT 10SM BKN055 BKN070 33/21 A2994 RMK AO2 T03390213
KJSO 182055Z AUTO 00000KT 10SM SCT055 33/20 A2995 RMK AO2 T03410206
KJSO 182035Z AUTO 27003KT 10SM SCT095 34/21 A2996 RMK AO2 T03420209
KJSO 182015Z AUTO 32005KT 10SM SCT070 SCT095 33/21 A2996 RMK AO2 T03390212
KJSO 181955Z AUTO 29005KT 10SM SCT050 SCT065 SCT075 34/21 A2996 RMK AO2 T03420213
KJSO 181935Z AUTO 29004KT 10SM SCT050 SCT065 SCT080 33/21 A2997 RMK AO2 T03370212
KJSO 181915Z AUTO 28003KT 10SM SCT050 BKN065 BKN080 32/21 A2998 RMK AO2 T03270214
KJSO 181855Z AUTO 20005KT 10SM BKN050 BKN065 BKN080 33/21 A2999 RMK AO2 T03350217
KJSO 181835Z AUTO 27003KT 10SM BKN048 BKN065 BKN080 33/21 A3000 RMK AO2 T03340214
KJSO 181815Z AUTO 30003KT 10SM SCT048 BKN065 BKN090 32/21 A3001 RMK AO2 T03270215
KJSO 181755Z AUTO 30003KT 10SM BKN046 OVC060 32/21 A3002 RMK AO2 T03300217
KJSO 181735Z AUTO 27003KT 10SM SCT042 BKN050 BKN055 32/21 A3003 RMK AO2 T03290217
KJSO 181715Z AUTO 35003KT 10SM SCT042 SCT050 31/21 A3003 RMK AO2 T03150218
KJSO 181655Z AUTO 00000KT 10SM SCT042 32/21 A3004 RMK AO2 T03220214
KJSO 181635Z AUTO 00000KT 10SM SCT042 31/21 A3005 RMK AO2 T03140214
KJSO 181615Z AUTO 00000KT 10SM CLR 31/21 A3005 RMK AO2 T03140213
KJSO 181555Z AUTO 36003KT 10SM CLR 31/21 A3005 RMK AO2 T03150218
KJSO 181535Z AUTO 36003KT 10SM CLR 31/22 A3005 RMK AO2 T03080220
KJSO 181515Z AUTO 32003KT 10SM CLR 30/22 A3005 RMK AO2 T03030221
KJSO 181455Z AUTO 27003KT 10SM CLR 29/21 A3005 RMK AO2 T02960214
KJSO 181435Z AUTO 29003KT 10SM CLR 28/21 A3005 RMK AO2 T02910217
KJSO 181415Z AUTO 28003KT 10SM CLR 28/22 A3004 RMK AO2 T02830229
KJSO 181355Z AUTO 26004KT 10SM CLR 27/22 A3004 RMK AO2 T02770228
KJSO 181335Z AUTO 00000KT 10SM CLR 27/23 A3004 RMK AO2 T02740231
KJSO 181315Z AUTO 00000KT 10SM CLR 26/23 A3004 RMK AO2 T02660231
KJSO 181255Z AUTO 00000KT 10SM CLR 25/23 A3003 RMK AO2 T02530231
KJSO 181235Z AUTO 00000KT 10SM CLR 24/22 A3003 RMK AO2 T02450225
KJSO 181215Z AUTO 23003KT 10SM CLR 25/22 A3003 RMK AO2 T02490225
KJSO 181155Z AUTO 00000KT 10SM CLR 25/22 A3003 RMK AO2 T02480223
KJSO 181135Z AUTO 00000KT 10SM CLR 25/22 A3002 RMK AO2 T02480222
KJSO 181115Z AUTO 00000KT 10SM CLR 24/22 A3002 RMK AO2 T02460220
KJSO 181055Z AUTO 00000KT 10SM CLR 24/21 A3001 RMK AO2 T02460219
KJSO 181035Z AUTO 00000KT 10SM CLR 25/21 A3001 RMK AO2 T02520218
KJSO 181015Z AUTO 00000KT 10SM CLR 26/21 A3001 RMK AO2 T02600217
KJSO 180955Z AUTO 00000KT 10SM CLR 26/21 A3001 RMK AO2 T02600216
KJSO 180935Z AUTO 23003KT 10SM CLR 26/21 A3000 RMK AO2 T02610215
KJSO 180915Z AUTO 24003KT 10SM CLR 26/21 A3000 RMK AO2 T02630215
KJSO 180855Z AUTO 24003KT 10SM CLR 26/21 A3000 RMK AO2 T02650215
KJSO 180835Z AUTO 24003KT 10SM CLR 26/21 A3001 RMK AO2 T02650215
KJSO 180815Z AUTO 22003KT 10SM CLR 26/21 A3001 RMK AO2 T02650215
KJSO 180755Z AUTO 22003KT 10SM CLR 26/21 A3001 RMK AO2 T02650215
KJSO 180735Z AUTO 00000KT 10SM CLR 25/21 A3001 RMK AO2 T02480216
KJSO 180715Z AUTO 00000KT 10SM CLR 25/21 A3001 RMK AO2 T02470217
KJSO 180655Z AUTO 00000KT 10SM CLR 24/21 A3001 RMK AO2 T02470219
KJSO 180635Z AUTO 00000KT 10SM CLR 25/21 A3001 RMK AO2 T02510219
KJSO 180615Z AUTO 00000KT 10SM CLR 24/22 A3001 RMK AO2 T02450220
KJSO 180555Z AUTO 00000KT 10SM CLR 25/22 A3001 RMK AO2 T02500220
KJSO 180535Z AUTO 00000KT 10SM CLR 24/22 A3001 RMK AO2 T02460220
KJSO 180515Z AUTO 00000KT 10SM CLR 25/22 A3002 RMK AO2 T02510221
KJSO 180455Z AUTO 00000KT 10SM CLR 25/22 A3002 RMK AO2 T02500225
KJSO 180435Z AUTO 00000KT 10SM CLR 25/22 A3001 RMK AO2 T02500227
KJSO 180415Z AUTO 00000KT 10SM CLR 25/22 A3001 RMK AO2 T02470229
KJSO 180355Z AUTO 00000KT 10SM CLR 25/22 A3001 RMK AO2 T02530229
KJSO 180335Z AUTO 00000KT 10SM CLR 25/22 A3001 RMK AO2 T02500230
KJSO 180315Z AUTO 00000KT 10SM CLR 26/22 A3001 RMK AO2 T02600230
KJSO 180255Z AUTO 00000KT 10SM CLR 25/22 A3000 RMK AO2 T02490229
KJSO 180235Z AUTO 00000KT 10SM CLR 26/23 A3000 RMK AO2 T02650231
KJSO 180215Z AUTO 00000KT 10SM CLR 26/22 A2999 RMK AO2 T02640228
KJSO 180155Z AUTO 00000KT 10SM CLR 25/22 A2998 RMK AO2 T02570226
KJSO 180135Z AUTO 00000KT 10SM CLR 25/22 A2997 RMK AO2 T02540228
KJSO 180115Z AUTO 00000KT 10SM CLR 26/22 A2996 RMK AO2 T02620223
KJSO 180055Z AUTO 00000KT 10SM CLR 26/22 A2996 RMK AO2 T02660222
KJSO 180035Z AUTO 00000KT 10SM CLR 26/22 A2995 RMK AO2 T02650223
KJSO 180015Z AUTO 00000KT 10SM CLR 26/22 A2995 RMK AO2 T02650224
KJSO 172355Z AUTO 04003KT 10SM CLR 27/21 A2995 RMK AO2 T02730216
KJSO 172335Z AUTO 34003KT 10SM CLR 28/20 A2996 RMK AO2 T02810200
KJSO 172315Z AUTO 00000KT 10SM CLR 27/21 A2996 RMK AO2 T02760212
KJSO 172255Z AUTO 34003KT 10SM -RA CLR 26/21 A2996 RMK AO2 T02680219
KJSO 172235Z AUTO 34003KT 10SM CLR 27/21 A2996 RMK AO2 T02770210
KJSO 172215Z AUTO 00000KT 10SM CLR 26/21 A2996 RMK AO2 LTG DSNT NW T02660213
KJSO 172155Z AUTO 00000KT 10SM CLR 26/21 A2996 RMK AO2 LTG DSNT W AND NW T02610213
KJSO 172135Z AUTO 29003KT 10SM CLR 26/21 A2997 RMK AO2 LTG DSNT W T02640213
KJSO 172115Z AUTO 25007KT 10SM CLR 26/22 A2997 RMK AO2 LTG DSNT SW THRU N T02670220
KJSO 172055Z AUTO 24004KT 10SM TS CLR 26/22 A2997 RMK AO2 LTG DSNT SW THRU N T02680224
KJSO 172035Z AUTO 23006KT 10SM CLR 27/21 A2997 RMK AO2 LTG DSNT SW AND W T02720219
KJSO 172015Z AUTO 21005KT 10SM -RA SCT028 SCT044 SCT055 26/22 A2999 RMK AO2 LTG DSNT ALQS T02630222
KJSO 171955Z AUTO 23005KT 10SM -TSRA SCT028 SCT043 BKN065 26/21 A3000 RMK AO2 LTG DSNT S AND SW P0001 T02650219
KJSO 171935Z AUTO 21007G15KT 10SM TSRA SCT029 BKN039 OVC070 27/21 A3000 RMK AO2 LTG DSNT S AND SW P0001 T02720219
KJSO 171915Z AUTO 26006KT 10SM VCTS BKN039 BKN049 BKN065 31/22 A3000 RMK AO2 LTG DSNT S AND SW T03090229
KJSO 171855Z AUTO 00000KT 10SM SCT043 31/22 A3000 RMK AO2 T03160226
KJSO 171835Z AUTO 05003KT 10SM CLR 30/23 A3001 RMK AO2 T03050231
KJSO 171815Z AUTO 03004KT 10SM SCT047 SCT060 BKN075 30/23 A3002 RMK AO2 T03020235
KJSO 171755Z AUTO 01004KT 10SM SCT039 BKN047 OVC085 31/23 A3002 RMK AO2 T03100231
KJSO 171735Z AUTO 02003KT 10SM BKN039 BKN049 BKN065 32/23 A3003 RMK AO2 T03220235
KJSO 171715Z AUTO 21003KT 10SM SCT041 31/22 A3003 RMK AO2 T03170223
KJSO 171655Z AUTO 00000KT 10SM CLR 31/22 A3003 RMK AO2 T03120225
KJSO 171635Z AUTO 28003KT 10SM CLR 31/22 A3004 RMK AO2 T03130226
KJSO 171615Z AUTO 00000KT 10SM CLR 31/23 A3004 RMK AO2 T03090232
KJSO 171555Z AUTO 00000KT 10SM CLR 30/23 A3004 RMK AO2 T03060231
KJSO 171535Z AUTO 00000KT 10SM CLR 30/22 A3004 RMK AO2 T03070229
KJSO 171515Z AUTO 29003KT 10SM CLR 30/22 A3004 RMK AO2 T02980226
KJSO 171455Z AUTO 00000KT 10SM CLR 30/23 A3003 RMK AO2 T02980233
KJSO 171435Z AUTO 29003KT 10SM CLR 28/23 A3003 RMK AO2 T02900230
KJSO 171415Z AUTO 30003KT 10SM CLR 27/22 A3002 RMK AO2 T02790228
KJSO 171355Z AUTO 30003KT 10SM CLR 27/22 A3002 RMK AO2 T02700227
KJSO 171335Z AUTO 00000KT 10SM CLR 27/22 A3001 RMK AO2 T02700225
KJSO 171315Z AUTO 00000KT 10SM CLR 26/22 A3001 RMK AO2 T02620228
KJSO 171255Z AUTO 00000KT 10SM CLR 25/22 A3000 RMK AO2 T02510227
KJSO 171235Z AUTO 00000KT 10SM CLR 24/22 A3000 RMK AO2 T02450223
KJSO 171215Z AUTO 00000KT 10SM CLR 24/22 A2999 RMK AO2 T02430222
KJSO 171155Z AUTO 00000KT 10SM CLR 24/22 A2998 RMK AO2 T02450222
KJSO 171135Z AUTO 00000KT 10SM CLR 24/22 A2998 RMK AO2 T02460221
KJSO 171115Z AUTO 00000KT 10SM CLR 25/22 A2998 RMK AO2 T02470221
KJSO 171055Z AUTO 27003KT 10SM CLR 25/22 A2997 RMK AO2 T02470222
KJSO 171035Z AUTO 24003KT 10SM CLR 24/22 A2997 RMK AO2 T02450221
KJSO 171015Z AUTO 00000KT 10SM CLR 24/22 A2996 RMK AO2 T02430220